N2MA KSYR-KEYW
Flight info
| Callsign | N2MA |
|---|---|
| Flight time | 2h 43m |
| Altitude | 43000 |
| Route | SYR PTAKI STUBN JERES ANDNN ASHEL PITRW EASLY MERKS KARTR GIGIH |
| Aircraft | C750/M-SBDE3FGHRWXY/S |
Departure
| Time | 2026-04-30 03:45 |
|---|---|
| Airport | Syracuse Hancock International Airport (KSYR) |
Arrival
| Time | 2026-04-30 06:29 |
|---|---|
| Airport | Key West International Airport (KEYW) |
| Time | Latitude | Longitude | Altitude | Speed | Heading |
|---|---|---|---|---|---|
| 2026-04-30 03:08 | 43.10607 | -76.12389 | 421 ft | 0 kts | 348° |
| 2026-04-30 03:40 | 43.10619 | -76.12392 | 416 ft | 6 kts | 348° |
| 2026-04-30 03:41 | 43.10633 | -76.12396 | 414 ft | 5 kts | 346° |
| 2026-04-30 03:41 | 43.10666 | -76.12456 | 421 ft | 12 kts | 274° |
| 2026-04-30 03:41 | 43.10709 | -76.12546 | 416 ft | 12 kts | 354° |
| 2026-04-30 03:41 | 43.10717 | -76.12545 | 421 ft | 0 kts | 357° |
| 2026-04-30 03:43 | 43.10731 | -76.12546 | 418 ft | 4 kts | 358° |
| 2026-04-30 03:44 | 43.10778 | -76.12549 | 419 ft | 9 kts | 358° |
| 2026-04-30 03:44 | 43.10825 | -76.12505 | 421 ft | 10 kts | 70° |
| 2026-04-30 03:44 | 43.10831 | -76.12339 | 421 ft | 38 kts | 86° |
| 2026-04-30 03:44 | 43.10854 | -76.11618 | 420 ft | 111 kts | 86° |
| 2026-04-30 03:45 | 43.10895 | -76.10328 | 449 ft | 154 kts | 89° |
| 2026-04-30 03:45 | 43.10948 | -76.08852 | 983 ft | 159 kts | 89° |
| 2026-04-30 03:45 | 43.11046 | -76.07292 | 1452 ft | 172 kts | 88° |
| 2026-04-30 03:45 | 43.11189 | -76.05588 | 1712 ft | 193 kts | 87° |
| 2026-04-30 03:46 | 43.11349 | -76.03725 | 2354 ft | 197 kts | 88° |
| 2026-04-30 03:46 | 43.11500 | -76.01881 | 2898 ft | 196 kts | 89° |
| 2026-04-30 03:46 | 43.11652 | -75.99931 | 2948 ft | 216 kts | 89° |
| 2026-04-30 03:46 | 43.11410 | -75.97904 | 2838 ft | 228 kts | 124° |
| 2026-04-30 03:47 | 43.10228 | -75.96452 | 2776 ft | 236 kts | 157° |
| 2026-04-30 03:47 | 43.08612 | -75.96007 | 2833 ft | 243 kts | 187° |
| 2026-04-30 03:47 | 43.07067 | -75.96758 | 3236 ft | 231 kts | 216° |
| 2026-04-30 03:47 | 43.06000 | -75.98216 | 4117 ft | 205 kts | 228° |
| 2026-04-30 03:48 | 43.05124 | -75.99520 | 5096 ft | 175 kts | 228° |
| 2026-04-30 03:48 | 43.04300 | -76.00708 | 5891 ft | 170 kts | 227° |
| 2026-04-30 03:48 | 43.03497 | -76.01895 | 6536 ft | 171 kts | 231° |
| 2026-04-30 03:48 | 43.02693 | -76.03235 | 6829 ft | 196 kts | 232° |
| 2026-04-30 03:49 | 43.01751 | -76.04714 | 7020 ft | 222 kts | 229° |
| 2026-04-30 03:49 | 43.00653 | -76.06370 | 7193 ft | 248 kts | 229° |
| 2026-04-30 03:49 | 42.99448 | -76.08196 | 7514 ft | 263 kts | 229° |
| 2026-04-30 03:49 | 42.98225 | -76.10070 | 8398 ft | 265 kts | 229° |
| 2026-04-30 03:50 | 42.96990 | -76.11945 | 9341 ft | 267 kts | 229° |
| 2026-04-30 03:50 | 42.95734 | -76.13838 | 10140 ft | 271 kts | 228° |
| 2026-04-30 03:50 | 42.94432 | -76.15813 | 10419 ft | 293 kts | 229° |
| 2026-04-30 03:50 | 42.93010 | -76.17977 | 10448 ft | 320 kts | 229° |
| 2026-04-30 03:51 | 42.91469 | -76.20312 | 10650 ft | 337 kts | 229° |
| 2026-04-30 03:51 | 42.89906 | -76.22675 | 11418 ft | 335 kts | 229° |
| 2026-04-30 03:51 | 42.89017 | -76.24019 | 11805 ft | 337 kts | 229° |
| 2026-04-30 03:51 | 42.87438 | -76.26390 | 12480 ft | 338 kts | 228° |
| 2026-04-30 03:52 | 42.87146 | -76.26831 | 12610 ft | 338 kts | 228° |
| 2026-04-30 03:52 | 42.86309 | -76.28094 | 12964 ft | 339 kts | 228° |
| 2026-04-30 03:52 | 42.84724 | -76.30493 | 13619 ft | 341 kts | 229° |
| 2026-04-30 03:52 | 42.83137 | -76.32898 | 14214 ft | 342 kts | 228° |
| 2026-04-30 03:53 | 42.81540 | -76.35314 | 14808 ft | 343 kts | 228° |
| 2026-04-30 03:53 | 42.79960 | -76.37696 | 15434 ft | 343 kts | 228° |
| 2026-04-30 03:53 | 42.78356 | -76.40113 | 16011 ft | 345 kts | 227° |
| 2026-04-30 03:53 | 42.76741 | -76.42543 | 16604 ft | 347 kts | 227° |
| 2026-04-30 03:54 | 42.75119 | -76.44981 | 17229 ft | 349 kts | 227° |
| 2026-04-30 03:54 | 42.73485 | -76.47438 | 17849 ft | 351 kts | 227° |
| 2026-04-30 03:54 | 42.71841 | -76.49902 | 18424 ft | 353 kts | 227° |
| 2026-04-30 03:54 | 42.70183 | -76.52385 | 18985 ft | 356 kts | 227° |
| 2026-04-30 03:55 | 42.68510 | -76.54892 | 19527 ft | 359 kts | 227° |
| 2026-04-30 03:55 | 42.66847 | -76.57384 | 20090 ft | 362 kts | 227° |
| 2026-04-30 03:55 | 42.65037 | -76.59776 | 20615 ft | 365 kts | 219° |
| 2026-04-30 03:55 | 42.62934 | -76.61735 | 21177 ft | 368 kts | 211° |
| 2026-04-30 03:56 | 42.60687 | -76.63438 | 21738 ft | 371 kts | 210° |
| 2026-04-30 03:56 | 42.58433 | -76.65172 | 22286 ft | 374 kts | 210° |
| 2026-04-30 03:56 | 42.56165 | -76.66930 | 22838 ft | 377 kts | 210° |
| 2026-04-30 03:56 | 42.53868 | -76.68690 | 23357 ft | 380 kts | 210° |
| 2026-04-30 03:57 | 42.51558 | -76.70450 | 23822 ft | 383 kts | 210° |
| 2026-04-30 03:57 | 42.49227 | -76.72232 | 24267 ft | 386 kts | 210° |
| 2026-04-30 03:57 | 42.46911 | -76.74006 | 24709 ft | 389 kts | 210° |
| 2026-04-30 03:57 | 42.44551 | -76.75809 | 25145 ft | 391 kts | 209° |
| 2026-04-30 03:58 | 42.42171 | -76.77624 | 25579 ft | 394 kts | 209° |
| 2026-04-30 03:58 | 42.39776 | -76.79449 | 26034 ft | 396 kts | 209° |
| 2026-04-30 03:58 | 42.37369 | -76.81283 | 26480 ft | 399 kts | 209° |
| 2026-04-30 03:58 | 42.34941 | -76.83130 | 26927 ft | 402 kts | 209° |
| 2026-04-30 03:59 | 42.32494 | -76.84991 | 27372 ft | 405 kts | 209° |
| 2026-04-30 03:59 | 42.30036 | -76.86866 | 27831 ft | 408 kts | 209° |
| 2026-04-30 03:59 | 42.27548 | -76.88749 | 28255 ft | 411 kts | 209° |
| 2026-04-30 03:59 | 42.25078 | -76.90606 | 28626 ft | 414 kts | 209° |
| 2026-04-30 04:00 | 42.22563 | -76.92518 | 29075 ft | 417 kts | 209° |
| 2026-04-30 04:00 | 42.20028 | -76.94448 | 29526 ft | 419 kts | 209° |
| 2026-04-30 04:00 | 42.17477 | -76.96375 | 29923 ft | 422 kts | 209° |
| 2026-04-30 04:00 | 42.14901 | -76.98314 | 30267 ft | 425 kts | 209° |
| 2026-04-30 04:01 | 42.12313 | -77.00258 | 30604 ft | 428 kts | 208° |
| 2026-04-30 04:01 | 42.09572 | -77.01871 | 30952 ft | 431 kts | 200° |
| 2026-04-30 04:01 | 42.06685 | -77.02920 | 31514 ft | 430 kts | 193° |
| 2026-04-30 04:01 | 42.03722 | -77.03494 | 31949 ft | 431 kts | 189° |
| 2026-04-30 04:02 | 42.00786 | -77.04020 | 32396 ft | 431 kts | 190° |
| 2026-04-30 04:02 | 41.97810 | -77.04576 | 32856 ft | 432 kts | 191° |
| 2026-04-30 04:02 | 41.94832 | -77.05124 | 33326 ft | 432 kts | 191° |
| 2026-04-30 04:02 | 41.91855 | -77.05656 | 33793 ft | 432 kts | 191° |
| 2026-04-30 04:03 | 41.88867 | -77.06193 | 34184 ft | 433 kts | 191° |
| 2026-04-30 04:03 | 41.85885 | -77.06736 | 34513 ft | 434 kts | 191° |
| 2026-04-30 04:03 | 41.82886 | -77.07282 | 34896 ft | 435 kts | 191° |
| 2026-04-30 04:03 | 41.79886 | -77.07822 | 35290 ft | 435 kts | 192° |
| 2026-04-30 04:04 | 41.76894 | -77.08360 | 35688 ft | 435 kts | 192° |
| 2026-04-30 04:04 | 41.73933 | -77.08895 | 36094 ft | 435 kts | 192° |
| 2026-04-30 04:04 | 41.70934 | -77.09438 | 36539 ft | 434 kts | 192° |
| 2026-04-30 04:04 | 41.67942 | -77.09975 | 36956 ft | 435 kts | 192° |
| 2026-04-30 04:05 | 41.64934 | -77.10515 | 37323 ft | 436 kts | 193° |
| 2026-04-30 04:05 | 41.61928 | -77.11056 | 37754 ft | 436 kts | 193° |
| 2026-04-30 04:05 | 41.58916 | -77.11597 | 38207 ft | 436 kts | 193° |
| 2026-04-30 04:05 | 41.55906 | -77.12136 | 38611 ft | 436 kts | 193° |
| 2026-04-30 04:06 | 41.52897 | -77.12676 | 38925 ft | 437 kts | 193° |
| 2026-04-30 04:06 | 41.49937 | -77.13207 | 39216 ft | 439 kts | 193° |
| 2026-04-30 04:06 | 41.46887 | -77.13752 | 39520 ft | 439 kts | 193° |
| 2026-04-30 04:06 | 41.43852 | -77.14294 | 39786 ft | 442 kts | 193° |
| 2026-04-30 04:07 | 41.40803 | -77.14839 | 40108 ft | 443 kts | 193° |
| 2026-04-30 04:07 | 41.37747 | -77.15383 | 40426 ft | 443 kts | 193° |
| 2026-04-30 04:07 | 41.34684 | -77.15930 | 40736 ft | 444 kts | 193° |
| 2026-04-30 04:08 | 41.28545 | -77.17021 | 41367 ft | 446 kts | 193° |
| 2026-04-30 04:08 | 41.25503 | -77.17562 | 41657 ft | 447 kts | 193° |
| 2026-04-30 04:08 | 41.22420 | -77.18109 | 41957 ft | 448 kts | 193° |
| 2026-04-30 04:08 | 41.19323 | -77.18659 | 42262 ft | 449 kts | 193° |
| 2026-04-30 04:09 | 41.16223 | -77.19207 | 42566 ft | 450 kts | 193° |
| 2026-04-30 04:09 | 41.13129 | -77.19755 | 42833 ft | 450 kts | 193° |
| 2026-04-30 04:09 | 41.09993 | -77.20313 | 42825 ft | 458 kts | 193° |
| 2026-04-30 04:10 | 41.03583 | -77.21444 | 42842 ft | 471 kts | 193° |
| 2026-04-30 04:10 | 40.97026 | -77.22598 | 42854 ft | 484 kts | 193° |
| 2026-04-30 04:11 | 40.90279 | -77.23784 | 42839 ft | 491 kts | 193° |
| 2026-04-30 04:11 | 40.86960 | -77.24359 | 42824 ft | 473 kts | 193° |
| 2026-04-30 04:11 | 40.83756 | -77.24917 | 42821 ft | 459 kts | 193° |
| 2026-04-30 04:12 | 40.77352 | -77.26062 | 42835 ft | 471 kts | 193° |
| 2026-04-30 04:12 | 40.70805 | -77.27193 | 42849 ft | 484 kts | 193° |
| 2026-04-30 04:13 | 40.64067 | -77.28374 | 42826 ft | 491 kts | 193° |
| 2026-04-30 04:13 | 40.57502 | -77.29511 | 42899 ft | 488 kts | 191° |
| 2026-04-30 04:14 | 40.50872 | -77.30663 | 42841 ft | 477 kts | 193° |
| 2026-04-30 04:14 | 40.44380 | -77.31798 | 42856 ft | 488 kts | 193° |
| 2026-04-30 04:15 | 40.37664 | -77.32948 | 42846 ft | 481 kts | 193° |
| 2026-04-30 04:15 | 40.31085 | -77.34095 | 42845 ft | 484 kts | 193° |
| 2026-04-30 04:16 | 40.24348 | -77.35253 | 42860 ft | 490 kts | 193° |
| 2026-04-30 04:16 | 40.17595 | -77.36412 | 42851 ft | 488 kts | 194° |
| 2026-04-30 04:17 | 40.10856 | -77.37574 | 42854 ft | 489 kts | 194° |
| 2026-04-30 04:17 | 40.04141 | -77.38721 | 42862 ft | 490 kts | 194° |
| 2026-04-30 04:18 | 39.97384 | -77.39879 | 42857 ft | 490 kts | 194° |
| 2026-04-30 04:18 | 39.90633 | -77.41029 | 42854 ft | 488 kts | 194° |
| 2026-04-30 04:19 | 39.83909 | -77.42176 | 42847 ft | 487 kts | 193° |
| 2026-04-30 04:19 | 39.77236 | -77.43311 | 42840 ft | 487 kts | 194° |
| 2026-04-30 04:20 | 39.70526 | -77.44447 | 42838 ft | 487 kts | 194° |
| 2026-04-30 04:20 | 39.63836 | -77.45739 | 42832 ft | 481 kts | 199° |
| 2026-04-30 04:21 | 39.57471 | -77.48213 | 42834 ft | 478 kts | 203° |
| 2026-04-30 04:21 | 39.51160 | -77.50676 | 42871 ft | 476 kts | 203° |
| 2026-04-30 04:22 | 39.44833 | -77.53181 | 42871 ft | 476 kts | 203° |
| 2026-04-30 04:22 | 39.38500 | -77.55660 | 42869 ft | 476 kts | 203° |
| 2026-04-30 04:23 | 39.32173 | -77.58143 | 42857 ft | 475 kts | 203° |
| 2026-04-30 04:23 | 39.25874 | -77.60609 | 42865 ft | 479 kts | 203° |
| 2026-04-30 04:24 | 39.19501 | -77.63094 | 42860 ft | 478 kts | 203° |
| 2026-04-30 04:24 | 39.13144 | -77.65573 | 42855 ft | 477 kts | 203° |
| 2026-04-30 04:25 | 39.06793 | -77.68044 | 42855 ft | 477 kts | 203° |
| 2026-04-30 04:25 | 39.00484 | -77.70493 | 42850 ft | 477 kts | 203° |
| 2026-04-30 04:26 | 38.94124 | -77.72958 | 42842 ft | 477 kts | 203° |
| 2026-04-30 04:26 | 38.87770 | -77.75416 | 42835 ft | 477 kts | 204° |
| 2026-04-30 04:27 | 38.81414 | -77.77870 | 42839 ft | 477 kts | 204° |
| 2026-04-30 04:27 | 38.75053 | -77.80322 | 42839 ft | 477 kts | 204° |
| 2026-04-30 04:28 | 38.68747 | -77.82747 | 42828 ft | 476 kts | 204° |
| 2026-04-30 04:28 | 38.62383 | -77.85192 | 42858 ft | 478 kts | 204° |
| 2026-04-30 04:29 | 38.56016 | -77.87631 | 42859 ft | 477 kts | 204° |
| 2026-04-30 04:29 | 38.49652 | -77.90066 | 42860 ft | 477 kts | 204° |
| 2026-04-30 04:30 | 38.43331 | -77.92480 | 42857 ft | 477 kts | 204° |
| 2026-04-30 04:30 | 38.36970 | -77.94904 | 42844 ft | 477 kts | 204° |
| 2026-04-30 04:31 | 38.30604 | -77.97325 | 42846 ft | 477 kts | 204° |
| 2026-04-30 04:31 | 38.24296 | -77.99721 | 42851 ft | 477 kts | 204° |
| 2026-04-30 04:32 | 38.17913 | -78.02142 | 42853 ft | 479 kts | 204° |
| 2026-04-30 04:32 | 38.11536 | -78.04553 | 42843 ft | 478 kts | 204° |
| 2026-04-30 04:33 | 38.05161 | -78.06962 | 42861 ft | 478 kts | 204° |
| 2026-04-30 04:33 | 37.98767 | -78.09373 | 42861 ft | 481 kts | 204° |
| 2026-04-30 04:34 | 37.92392 | -78.11770 | 42841 ft | 480 kts | 204° |
| 2026-04-30 04:34 | 37.85986 | -78.14178 | 42845 ft | 480 kts | 204° |
| 2026-04-30 04:35 | 37.79578 | -78.16580 | 42843 ft | 481 kts | 204° |
| 2026-04-30 04:35 | 37.73166 | -78.18980 | 42847 ft | 481 kts | 204° |
| 2026-04-30 04:36 | 37.66751 | -78.21376 | 42848 ft | 481 kts | 204° |
| 2026-04-30 04:36 | 37.60351 | -78.23665 | 42850 ft | 483 kts | 202° |
| 2026-04-30 04:37 | 37.53833 | -78.25730 | 42854 ft | 483 kts | 202° |
| 2026-04-30 04:37 | 37.47326 | -78.27823 | 42859 ft | 483 kts | 202° |
| 2026-04-30 04:38 | 37.40851 | -78.29881 | 42861 ft | 483 kts | 202° |
| 2026-04-30 04:38 | 37.34347 | -78.31956 | 42860 ft | 482 kts | 202° |
| 2026-04-30 04:39 | 37.27842 | -78.34023 | 42864 ft | 482 kts | 202° |
| 2026-04-30 04:39 | 37.21335 | -78.36088 | 42860 ft | 483 kts | 202° |
| 2026-04-30 04:40 | 37.14824 | -78.38150 | 42861 ft | 482 kts | 202° |
| 2026-04-30 04:40 | 37.08366 | -78.40191 | 42859 ft | 481 kts | 202° |
| 2026-04-30 04:41 | 37.01869 | -78.42243 | 42869 ft | 482 kts | 202° |
| 2026-04-30 04:41 | 36.95379 | -78.44286 | 42871 ft | 481 kts | 202° |
| 2026-04-30 04:42 | 36.88881 | -78.46331 | 42892 ft | 481 kts | 203° |
| 2026-04-30 04:42 | 36.82418 | -78.48360 | 42890 ft | 482 kts | 203° |
| 2026-04-30 04:43 | 36.75913 | -78.50398 | 42891 ft | 482 kts | 203° |
| 2026-04-30 04:43 | 36.69399 | -78.52438 | 42890 ft | 484 kts | 203° |
| 2026-04-30 04:44 | 36.62866 | -78.54476 | 42882 ft | 485 kts | 203° |
| 2026-04-30 04:44 | 36.56363 | -78.56504 | 42873 ft | 485 kts | 203° |
| 2026-04-30 04:45 | 36.49825 | -78.58539 | 42885 ft | 484 kts | 203° |
| 2026-04-30 04:45 | 36.43283 | -78.60572 | 42869 ft | 484 kts | 203° |
| 2026-04-30 04:46 | 36.36760 | -78.62595 | 42887 ft | 484 kts | 203° |
| 2026-04-30 04:46 | 36.30226 | -78.64619 | 42884 ft | 484 kts | 203° |
| 2026-04-30 04:47 | 36.23725 | -78.66627 | 42881 ft | 484 kts | 203° |
| 2026-04-30 04:47 | 36.17200 | -78.68640 | 42882 ft | 484 kts | 203° |
| 2026-04-30 04:48 | 36.10654 | -78.70657 | 42872 ft | 485 kts | 203° |
| 2026-04-30 04:48 | 36.04111 | -78.72668 | 42865 ft | 484 kts | 203° |
| 2026-04-30 04:49 | 35.97620 | -78.74662 | 42862 ft | 485 kts | 203° |
| 2026-04-30 04:49 | 35.91074 | -78.76667 | 42907 ft | 486 kts | 203° |
| 2026-04-30 04:50 | 35.84514 | -78.78674 | 42847 ft | 485 kts | 203° |
| 2026-04-30 04:50 | 35.77966 | -78.80674 | 42854 ft | 486 kts | 203° |
| 2026-04-30 04:51 | 35.71456 | -78.82658 | 42842 ft | 485 kts | 203° |
| 2026-04-30 04:51 | 35.64894 | -78.84657 | 42870 ft | 486 kts | 203° |
| 2026-04-30 04:52 | 35.58314 | -78.86656 | 42880 ft | 488 kts | 203° |
| 2026-04-30 04:52 | 35.51736 | -78.88649 | 42881 ft | 486 kts | 203° |
| 2026-04-30 04:53 | 35.45210 | -78.90629 | 42876 ft | 487 kts | 203° |
| 2026-04-30 04:53 | 35.38579 | -78.92428 | 42843 ft | 489 kts | 200° |
| 2026-04-30 04:54 | 35.31904 | -78.94103 | 42847 ft | 489 kts | 201° |
| 2026-04-30 04:54 | 35.25236 | -78.95795 | 42852 ft | 489 kts | 201° |
| 2026-04-30 04:55 | 35.18619 | -78.97455 | 42852 ft | 489 kts | 201° |
| 2026-04-30 04:55 | 35.11955 | -78.99137 | 42843 ft | 489 kts | 201° |
| 2026-04-30 04:56 | 35.05294 | -79.00806 | 42844 ft | 489 kts | 201° |
| 2026-04-30 04:56 | 34.98642 | -79.02476 | 42856 ft | 488 kts | 201° |
| 2026-04-30 04:57 | 34.92024 | -79.04133 | 42862 ft | 490 kts | 201° |
| 2026-04-30 04:57 | 34.85355 | -79.05796 | 42854 ft | 489 kts | 201° |
| 2026-04-30 04:58 | 34.78701 | -79.07458 | 42853 ft | 487 kts | 201° |
| 2026-04-30 04:58 | 34.72042 | -79.09116 | 42867 ft | 487 kts | 201° |
| 2026-04-30 04:59 | 34.65448 | -79.10756 | 42871 ft | 488 kts | 201° |
| 2026-04-30 04:59 | 34.58802 | -79.12405 | 42871 ft | 487 kts | 201° |
| 2026-04-30 05:00 | 34.52161 | -79.14051 | 42866 ft | 487 kts | 201° |
| 2026-04-30 05:00 | 34.45520 | -79.15695 | 42869 ft | 487 kts | 201° |
| 2026-04-30 05:01 | 34.38910 | -79.17329 | 42878 ft | 489 kts | 201° |
| 2026-04-30 05:01 | 34.32250 | -79.18969 | 42887 ft | 489 kts | 201° |
| 2026-04-30 05:02 | 34.25594 | -79.20609 | 42855 ft | 488 kts | 201° |
| 2026-04-30 05:02 | 34.18894 | -79.22261 | 42888 ft | 495 kts | 202° |
| 2026-04-30 05:03 | 34.12146 | -79.23909 | 42892 ft | 495 kts | 202° |
| 2026-04-30 05:03 | 34.05444 | -79.25555 | 42886 ft | 494 kts | 202° |
| 2026-04-30 05:04 | 33.98703 | -79.27202 | 42883 ft | 495 kts | 202° |
| 2026-04-30 05:04 | 33.91896 | -79.28870 | 42907 ft | 501 kts | 201° |
| 2026-04-30 05:05 | 33.85064 | -79.30529 | 42911 ft | 500 kts | 201° |
| 2026-04-30 05:05 | 33.78288 | -79.32183 | 42909 ft | 500 kts | 201° |
| 2026-04-30 05:06 | 33.67999 | -79.34686 | 42889 ft | 508 kts | 201° |
| 2026-04-30 05:06 | 33.61079 | -79.36354 | 42901 ft | 507 kts | 201° |
| 2026-04-30 05:07 | 33.54165 | -79.38035 | 42908 ft | 507 kts | 201° |
| 2026-04-30 05:07 | 33.47289 | -79.39693 | 42911 ft | 508 kts | 201° |
| 2026-04-30 05:08 | 33.40338 | -79.41372 | 42915 ft | 510 kts | 201° |
| 2026-04-30 05:08 | 33.33388 | -79.43043 | 42908 ft | 509 kts | 201° |
| 2026-04-30 05:09 | 33.26451 | -79.44714 | 42905 ft | 508 kts | 201° |
| 2026-04-30 05:09 | 33.19562 | -79.46368 | 42909 ft | 510 kts | 200° |
| 2026-04-30 05:10 | 33.12595 | -79.48036 | 42904 ft | 510 kts | 200° |
| 2026-04-30 05:10 | 33.05648 | -79.49701 | 42902 ft | 510 kts | 200° |
| 2026-04-30 05:11 | 32.98691 | -79.51362 | 42899 ft | 510 kts | 200° |
| 2026-04-30 05:11 | 32.91782 | -79.53010 | 42898 ft | 510 kts | 200° |
| 2026-04-30 05:12 | 32.84836 | -79.54664 | 42898 ft | 509 kts | 200° |
| 2026-04-30 05:12 | 32.77877 | -79.56321 | 42905 ft | 510 kts | 200° |
| 2026-04-30 05:13 | 32.70901 | -79.57901 | 42872 ft | 509 kts | 199° |
| 2026-04-30 05:13 | 32.64014 | -79.59388 | 42906 ft | 505 kts | 199° |
| 2026-04-30 05:14 | 32.57087 | -79.60869 | 42909 ft | 508 kts | 199° |
| 2026-04-30 05:14 | 32.50135 | -79.62349 | 42915 ft | 507 kts | 199° |
| 2026-04-30 05:15 | 32.43190 | -79.63833 | 42913 ft | 506 kts | 199° |
| 2026-04-30 05:15 | 32.36299 | -79.65298 | 42912 ft | 507 kts | 199° |
| 2026-04-30 05:16 | 32.29356 | -79.66775 | 42913 ft | 507 kts | 199° |
| 2026-04-30 05:16 | 32.22422 | -79.68244 | 42912 ft | 507 kts | 199° |
| 2026-04-30 05:17 | 32.15486 | -79.69715 | 42913 ft | 507 kts | 198° |
| 2026-04-30 05:17 | 32.08535 | -79.71183 | 42916 ft | 507 kts | 198° |
| 2026-04-30 05:18 | 32.01643 | -79.72641 | 42914 ft | 506 kts | 198° |
| 2026-04-30 05:18 | 31.94703 | -79.74104 | 42922 ft | 507 kts | 198° |
| 2026-04-30 05:19 | 31.87764 | -79.75566 | 42918 ft | 509 kts | 198° |
| 2026-04-30 05:19 | 31.80802 | -79.77027 | 42919 ft | 509 kts | 198° |
| 2026-04-30 05:20 | 31.73833 | -79.78490 | 42924 ft | 508 kts | 198° |
| 2026-04-30 05:20 | 31.66920 | -79.79939 | 42930 ft | 508 kts | 198° |
| 2026-04-30 05:21 | 31.59976 | -79.81393 | 42920 ft | 508 kts | 198° |
| 2026-04-30 05:21 | 31.53014 | -79.82847 | 42926 ft | 508 kts | 198° |
| 2026-04-30 05:22 | 31.46061 | -79.84297 | 42925 ft | 508 kts | 198° |
| 2026-04-30 05:22 | 31.39154 | -79.85736 | 42887 ft | 507 kts | 198° |
| 2026-04-30 05:23 | 31.32187 | -79.87187 | 42932 ft | 510 kts | 197° |
| 2026-04-30 05:23 | 31.25200 | -79.88635 | 42933 ft | 509 kts | 197° |
| 2026-04-30 05:24 | 31.18225 | -79.90083 | 42938 ft | 509 kts | 197° |
| 2026-04-30 05:24 | 31.11301 | -79.91517 | 42919 ft | 509 kts | 197° |
| 2026-04-30 05:25 | 31.04312 | -79.92963 | 42937 ft | 512 kts | 197° |
| 2026-04-30 05:25 | 30.97309 | -79.94406 | 42940 ft | 510 kts | 197° |
| 2026-04-30 05:26 | 30.90313 | -79.95850 | 42945 ft | 510 kts | 197° |
| 2026-04-30 05:26 | 30.84498 | -79.97046 | 42904 ft | 511 kts | 197° |
| 2026-04-30 05:27 | 30.76388 | -79.98713 | 42939 ft | 509 kts | 197° |
| 2026-04-30 05:27 | 30.69414 | -80.00144 | 42937 ft | 509 kts | 197° |
| 2026-04-30 05:28 | 30.63608 | -80.01335 | 42941 ft | 509 kts | 197° |
| 2026-04-30 05:28 | 30.56631 | -80.02763 | 42909 ft | 509 kts | 196° |
| 2026-04-30 05:29 | 30.49887 | -80.04139 | 42943 ft | 503 kts | 196° |
| 2026-04-30 05:29 | 30.42983 | -80.05552 | 42945 ft | 505 kts | 196° |
| 2026-04-30 05:30 | 30.36099 | -80.06952 | 42943 ft | 506 kts | 196° |
| 2026-04-30 05:30 | 30.29172 | -80.08363 | 42948 ft | 505 kts | 196° |
| 2026-04-30 05:31 | 30.27387 | -80.08726 | 42955 ft | 506 kts | 196° |
| 2026-04-30 05:31 | 30.20447 | -80.10122 | 42951 ft | 505 kts | 196° |
| 2026-04-30 05:32 | 30.13528 | -80.11542 | 42970 ft | 505 kts | 196° |
| 2026-04-30 05:32 | 30.06650 | -80.12928 | 42953 ft | 505 kts | 196° |
| 2026-04-30 05:33 | 29.99737 | -80.14331 | 42951 ft | 504 kts | 196° |
| 2026-04-30 05:33 | 29.92818 | -80.15727 | 42950 ft | 505 kts | 196° |
| 2026-04-30 05:34 | 29.85898 | -80.17124 | 42958 ft | 504 kts | 196° |
| 2026-04-30 05:34 | 29.79040 | -80.18505 | 42953 ft | 504 kts | 196° |
| 2026-04-30 05:35 | 29.72128 | -80.19895 | 42964 ft | 505 kts | 196° |
| 2026-04-30 05:35 | 29.65182 | -80.21290 | 42971 ft | 507 kts | 195° |
| 2026-04-30 05:36 | 29.58249 | -80.22680 | 42970 ft | 506 kts | 196° |
| 2026-04-30 05:36 | 29.51360 | -80.24061 | 42974 ft | 506 kts | 195° |
| 2026-04-30 05:37 | 29.44496 | -80.25713 | 42972 ft | 499 kts | 202° |
| 2026-04-30 05:37 | 29.37822 | -80.28030 | 42978 ft | 502 kts | 202° |
| 2026-04-30 05:38 | 29.31126 | -80.30277 | 42981 ft | 501 kts | 202° |
| 2026-04-30 05:38 | 29.24486 | -80.32549 | 42987 ft | 501 kts | 202° |
| 2026-04-30 05:39 | 29.17801 | -80.34807 | 42969 ft | 501 kts | 202° |
| 2026-04-30 05:39 | 29.11077 | -80.37089 | 42973 ft | 504 kts | 202° |
| 2026-04-30 05:40 | 29.04360 | -80.39357 | 42973 ft | 503 kts | 202° |
| 2026-04-30 05:40 | 28.97692 | -80.41611 | 42970 ft | 503 kts | 202° |
| 2026-04-30 05:41 | 28.90979 | -80.43873 | 42971 ft | 503 kts | 202° |
| 2026-04-30 05:41 | 28.84226 | -80.46151 | 42979 ft | 508 kts | 202° |
| 2026-04-30 05:42 | 28.77464 | -80.48420 | 42975 ft | 506 kts | 202° |
| 2026-04-30 05:42 | 28.70758 | -80.50677 | 42977 ft | 506 kts | 202° |
| 2026-04-30 05:43 | 28.63986 | -80.52946 | 42972 ft | 507 kts | 202° |
| 2026-04-30 05:43 | 28.57235 | -80.55208 | 42963 ft | 506 kts | 202° |
| 2026-04-30 05:44 | 28.50491 | -80.57465 | 42963 ft | 505 kts | 202° |
| 2026-04-30 05:44 | 28.43746 | -80.59717 | 42962 ft | 505 kts | 202° |
| 2026-04-30 05:45 | 28.37042 | -80.61955 | 42963 ft | 505 kts | 202° |
| 2026-04-30 05:45 | 28.30288 | -80.64206 | 42968 ft | 508 kts | 202° |
| 2026-04-30 05:46 | 28.23499 | -80.66463 | 42967 ft | 507 kts | 202° |
| 2026-04-30 05:46 | 28.16722 | -80.68717 | 42971 ft | 509 kts | 202° |
| 2026-04-30 05:47 | 28.09960 | -80.70961 | 42981 ft | 510 kts | 202° |
| 2026-04-30 05:47 | 28.03171 | -80.73210 | 42966 ft | 507 kts | 202° |
| 2026-04-30 05:48 | 27.96383 | -80.75459 | 42958 ft | 508 kts | 202° |
| 2026-04-30 05:48 | 27.89590 | -80.77703 | 42953 ft | 508 kts | 202° |
| 2026-04-30 05:49 | 27.82852 | -80.79928 | 42960 ft | 508 kts | 202° |
| 2026-04-30 05:49 | 27.76059 | -80.82168 | 42954 ft | 508 kts | 201° |
| 2026-04-30 05:50 | 27.69282 | -80.84400 | 42960 ft | 507 kts | 201° |
| 2026-04-30 05:50 | 27.62498 | -80.86631 | 42960 ft | 508 kts | 201° |
| 2026-04-30 05:51 | 27.55769 | -80.88841 | 42960 ft | 507 kts | 201° |
| 2026-04-30 05:51 | 27.48987 | -80.91065 | 42963 ft | 507 kts | 201° |
| 2026-04-30 05:52 | 27.42251 | -80.93270 | 42964 ft | 502 kts | 201° |
| 2026-04-30 05:52 | 27.35592 | -80.95452 | 42961 ft | 502 kts | 201° |
| 2026-04-30 05:53 | 27.28876 | -80.97645 | 42963 ft | 503 kts | 201° |
| 2026-04-30 05:53 | 27.22158 | -80.99838 | 42964 ft | 503 kts | 201° |
| 2026-04-30 05:54 | 27.15441 | -81.02027 | 42967 ft | 502 kts | 201° |
| 2026-04-30 05:54 | 27.08738 | -81.04210 | 42971 ft | 501 kts | 201° |
| 2026-04-30 05:55 | 27.02075 | -81.06376 | 42983 ft | 502 kts | 201° |
| 2026-04-30 05:55 | 26.95365 | -81.08555 | 42980 ft | 502 kts | 201° |
| 2026-04-30 05:56 | 26.88661 | -81.10729 | 42951 ft | 501 kts | 201° |
| 2026-04-30 05:56 | 26.82120 | -81.12839 | 42944 ft | 468 kts | 201° |
| 2026-04-30 05:57 | 26.79094 | -81.13817 | 42593 ft | 454 kts | 201° |
| 2026-04-30 05:57 | 26.76070 | -81.14806 | 41636 ft | 454 kts | 201° |
| 2026-04-30 05:57 | 26.73028 | -81.15797 | 40629 ft | 455 kts | 200° |
| 2026-04-30 05:57 | 26.69985 | -81.16774 | 39674 ft | 456 kts | 199° |
| 2026-04-30 05:58 | 26.66929 | -81.17756 | 38716 ft | 457 kts | 199° |
| 2026-04-30 05:58 | 26.63867 | -81.18745 | 37533 ft | 458 kts | 199° |
| 2026-04-30 05:58 | 26.60802 | -81.19737 | 36264 ft | 461 kts | 199° |
| 2026-04-30 05:58 | 26.57712 | -81.20733 | 34896 ft | 465 kts | 199° |
| 2026-04-30 05:59 | 26.54610 | -81.21732 | 33372 ft | 473 kts | 199° |
| 2026-04-30 05:59 | 26.51433 | -81.22755 | 31752 ft | 478 kts | 198° |
| 2026-04-30 05:59 | 26.48195 | -81.23700 | 30025 ft | 485 kts | 194° |
| 2026-04-30 05:59 | 26.44909 | -81.24605 | 28572 ft | 483 kts | 196° |
| 2026-04-30 06:00 | 26.41692 | -81.25554 | 27635 ft | 471 kts | 197° |
| 2026-04-30 06:00 | 26.38611 | -81.26444 | 27387 ft | 444 kts | 197° |
| 2026-04-30 06:00 | 26.35686 | -81.27251 | 26888 ft | 426 kts | 197° |
| 2026-04-30 06:00 | 26.32817 | -81.28042 | 25897 ft | 424 kts | 197° |
| 2026-04-30 06:01 | 26.29974 | -81.28847 | 25106 ft | 417 kts | 198° |
| 2026-04-30 06:01 | 26.27220 | -81.29630 | 24245 ft | 414 kts | 198° |
| 2026-04-30 06:01 | 26.24432 | -81.30413 | 23367 ft | 412 kts | 198° |
| 2026-04-30 06:01 | 26.21657 | -81.31187 | 22067 ft | 415 kts | 198° |
| 2026-04-30 06:02 | 26.18862 | -81.31973 | 21134 ft | 410 kts | 198° |
| 2026-04-30 06:02 | 26.16126 | -81.32740 | 20284 ft | 403 kts | 197° |
| 2026-04-30 06:02 | 26.13425 | -81.33497 | 19422 ft | 397 kts | 197° |
| 2026-04-30 06:02 | 26.10764 | -81.34243 | 18240 ft | 396 kts | 196° |
| 2026-04-30 06:03 | 26.08032 | -81.35011 | 16703 ft | 407 kts | 196° |
| 2026-04-30 06:03 | 26.05367 | -81.35753 | 15844 ft | 394 kts | 195° |
| 2026-04-30 06:03 | 26.02729 | -81.36491 | 14846 ft | 387 kts | 195° |
| 2026-04-30 06:03 | 26.00141 | -81.37216 | 13912 ft | 380 kts | 195° |
| 2026-04-30 06:04 | 25.97601 | -81.37927 | 12846 ft | 374 kts | 195° |
| 2026-04-30 06:04 | 25.95131 | -81.38617 | 12398 ft | 354 kts | 195° |
| 2026-04-30 06:04 | 25.92839 | -81.39257 | 12282 ft | 327 kts | 195° |
| 2026-04-30 06:05 | 25.88544 | -81.40458 | 10887 ft | 316 kts | 195° |
| 2026-04-30 06:05 | 25.86394 | -81.41055 | 10030 ft | 321 kts | 195° |
| 2026-04-30 06:05 | 25.84310 | -81.41635 | 9919 ft | 297 kts | 195° |
| 2026-04-30 06:05 | 25.82331 | -81.42190 | 9275 ft | 294 kts | 195° |
| 2026-04-30 06:06 | 25.80346 | -81.42744 | 8600 ft | 293 kts | 194° |
| 2026-04-30 06:06 | 25.78380 | -81.43290 | 8005 ft | 290 kts | 194° |
| 2026-04-30 06:06 | 25.76427 | -81.43832 | 7401 ft | 288 kts | 194° |
| 2026-04-30 06:06 | 25.74490 | -81.44372 | 6813 ft | 287 kts | 195° |
| 2026-04-30 06:07 | 25.72559 | -81.44910 | 6231 ft | 284 kts | 194° |
| 2026-04-30 06:07 | 25.70681 | -81.45433 | 5683 ft | 280 kts | 194° |
| 2026-04-30 06:07 | 25.68811 | -81.45953 | 5320 ft | 269 kts | 193° |
| 2026-04-30 06:07 | 25.67076 | -81.46437 | 5308 ft | 246 kts | 193° |
| 2026-04-30 06:08 | 25.65483 | -81.46881 | 5230 ft | 229 kts | 193° |
| 2026-04-30 06:08 | 25.63941 | -81.47308 | 4830 ft | 229 kts | 193° |
| 2026-04-30 06:08 | 25.62401 | -81.47734 | 4483 ft | 227 kts | 193° |
| 2026-04-30 06:08 | 25.60877 | -81.48157 | 4025 ft | 227 kts | 193° |
| 2026-04-30 06:09 | 25.59291 | -81.48596 | 3029 ft | 250 kts | 194° |
| 2026-04-30 06:09 | 25.57543 | -81.49080 | 2227 ft | 261 kts | 194° |
| 2026-04-30 06:09 | 25.55797 | -81.49566 | 1724 ft | 261 kts | 194° |
| 2026-04-30 06:09 | 25.53980 | -81.50071 | 2013 ft | 271 kts | 194° |
| 2026-04-30 06:10 | 25.52212 | -81.50560 | 2889 ft | 263 kts | 194° |
| 2026-04-30 06:10 | 25.50405 | -81.51062 | 2989 ft | 267 kts | 194° |
| 2026-04-30 06:10 | 25.48664 | -81.51709 | 2973 ft | 263 kts | 203° |
| 2026-04-30 06:10 | 25.47006 | -81.52500 | 2976 ft | 263 kts | 203° |
| 2026-04-30 06:11 | 25.45326 | -81.53275 | 2970 ft | 262 kts | 202° |
| 2026-04-30 06:11 | 25.43645 | -81.54046 | 2967 ft | 262 kts | 202° |
| 2026-04-30 06:11 | 25.41956 | -81.54828 | 3006 ft | 268 kts | 202° |
| 2026-04-30 06:11 | 25.40250 | -81.55619 | 4102 ft | 259 kts | 202° |
| 2026-04-30 06:12 | 25.38563 | -81.56401 | 4969 ft | 268 kts | 201° |
| 2026-04-30 06:12 | 25.36812 | -81.57210 | 5754 ft | 278 kts | 202° |
| 2026-04-30 06:12 | 25.34994 | -81.58051 | 5993 ft | 286 kts | 202° |
| 2026-04-30 06:12 | 25.33178 | -81.58891 | 5988 ft | 282 kts | 202° |
| 2026-04-30 06:13 | 25.31395 | -81.59717 | 5989 ft | 281 kts | 202° |
| 2026-04-30 06:13 | 25.29599 | -81.60547 | 5990 ft | 280 kts | 202° |
| 2026-04-30 06:13 | 25.27805 | -81.61375 | 5989 ft | 280 kts | 202° |
| 2026-04-30 06:13 | 25.26008 | -81.62205 | 5989 ft | 279 kts | 202° |
| 2026-04-30 06:14 | 25.24216 | -81.63033 | 5990 ft | 279 kts | 202° |
| 2026-04-30 06:14 | 25.22421 | -81.63862 | 5990 ft | 280 kts | 202° |
| 2026-04-30 06:14 | 25.20626 | -81.64690 | 5990 ft | 280 kts | 202° |
| 2026-04-30 06:14 | 25.18832 | -81.65517 | 5991 ft | 279 kts | 202° |
| 2026-04-30 06:15 | 25.17055 | -81.66338 | 5988 ft | 282 kts | 202° |
| 2026-04-30 06:15 | 25.15248 | -81.67171 | 5985 ft | 282 kts | 202° |
| 2026-04-30 06:15 | 25.13436 | -81.68006 | 5985 ft | 281 kts | 202° |
| 2026-04-30 06:15 | 25.11631 | -81.68837 | 5985 ft | 281 kts | 202° |
| 2026-04-30 06:16 | 25.09821 | -81.69671 | 5984 ft | 281 kts | 202° |
| 2026-04-30 06:16 | 25.08018 | -81.70501 | 5981 ft | 280 kts | 202° |
| 2026-04-30 06:16 | 25.06218 | -81.71330 | 5981 ft | 281 kts | 202° |
| 2026-04-30 06:16 | 25.04415 | -81.72159 | 5981 ft | 281 kts | 202° |
| 2026-04-30 06:17 | 25.02636 | -81.72978 | 5981 ft | 281 kts | 202° |
| 2026-04-30 06:17 | 25.00837 | -81.73817 | 5979 ft | 280 kts | 204° |
| 2026-04-30 06:17 | 24.99087 | -81.74768 | 5985 ft | 281 kts | 205° |
| 2026-04-30 06:17 | 24.97293 | -81.75626 | 5986 ft | 281 kts | 202° |
| 2026-04-30 06:18 | 24.95538 | -81.76477 | 5976 ft | 265 kts | 204° |
| 2026-04-30 06:18 | 24.93939 | -81.77303 | 5974 ft | 246 kts | 205° |
| 2026-04-30 06:18 | 24.92305 | -81.78143 | 5982 ft | 266 kts | 204° |
| 2026-04-30 06:18 | 24.90617 | -81.78993 | 5994 ft | 268 kts | 204° |
| 2026-04-30 06:19 | 24.88941 | -81.79839 | 6001 ft | 269 kts | 204° |
| 2026-04-30 06:19 | 24.87235 | -81.80704 | 5999 ft | 277 kts | 204° |
| 2026-04-30 06:19 | 24.85456 | -81.81605 | 5975 ft | 277 kts | 204° |
| 2026-04-30 06:19 | 24.83747 | -81.82471 | 5801 ft | 260 kts | 204° |
| 2026-04-30 06:20 | 24.82164 | -81.83274 | 5707 ft | 243 kts | 204° |
| 2026-04-30 06:20 | 24.80662 | -81.84033 | 5556 ft | 234 kts | 204° |
| 2026-04-30 06:20 | 24.79198 | -81.84772 | 5423 ft | 229 kts | 204° |
| 2026-04-30 06:20 | 24.77783 | -81.85487 | 5274 ft | 219 kts | 206° |
| 2026-04-30 06:21 | 24.76448 | -81.86161 | 5131 ft | 210 kts | 205° |
| 2026-04-30 06:21 | 24.75147 | -81.86819 | 4987 ft | 202 kts | 206° |
| 2026-04-30 06:21 | 24.73892 | -81.87453 | 4868 ft | 195 kts | 206° |
| 2026-04-30 06:21 | 24.72670 | -81.88070 | 4699 ft | 196 kts | 206° |
| 2026-04-30 06:22 | 24.71327 | -81.88752 | 4425 ft | 224 kts | 206° |
| 2026-04-30 06:22 | 24.69902 | -81.89474 | 4087 ft | 226 kts | 206° |
| 2026-04-30 06:22 | 24.68477 | -81.90190 | 3782 ft | 224 kts | 205° |
| 2026-04-30 06:22 | 24.67061 | -81.90901 | 3487 ft | 223 kts | 205° |
| 2026-04-30 06:23 | 24.65666 | -81.91605 | 3196 ft | 223 kts | 205° |
| 2026-04-30 06:23 | 24.64259 | -81.92315 | 2898 ft | 222 kts | 205° |
| 2026-04-30 06:23 | 24.62852 | -81.93027 | 2614 ft | 223 kts | 204° |
| 2026-04-30 06:23 | 24.61443 | -81.93735 | 2312 ft | 223 kts | 204° |
| 2026-04-30 06:24 | 24.59989 | -81.94302 | 2001 ft | 222 kts | 191° |
| 2026-04-30 06:24 | 24.58512 | -81.94332 | 1698 ft | 204 kts | 170° |
| 2026-04-30 06:24 | 24.57253 | -81.93822 | 1448 ft | 179 kts | 147° |
| 2026-04-30 06:24 | 24.56405 | -81.92957 | 1444 ft | 164 kts | 128° |
| 2026-04-30 06:25 | 24.55807 | -81.91920 | 1479 ft | 152 kts | 114° |
| 2026-04-30 06:25 | 24.55490 | -81.90806 | 1501 ft | 164 kts | 100° |
| 2026-04-30 06:25 | 24.55435 | -81.89543 | 1499 ft | 161 kts | 87° |
| 2026-04-30 06:25 | 24.55478 | -81.88433 | 1479 ft | 133 kts | 88° |
| 2026-04-30 06:26 | 24.55493 | -81.87459 | 1488 ft | 127 kts | 89° |
| 2026-04-30 06:26 | 24.55505 | -81.86485 | 1488 ft | 128 kts | 88° |
| 2026-04-30 06:26 | 24.55516 | -81.85502 | 1499 ft | 130 kts | 89° |
| 2026-04-30 06:26 | 24.55528 | -81.84490 | 1374 ft | 135 kts | 89° |
| 2026-04-30 06:27 | 24.55538 | -81.83463 | 1207 ft | 133 kts | 89° |
| 2026-04-30 06:27 | 24.55548 | -81.82461 | 1031 ft | 131 kts | 89° |
| 2026-04-30 06:27 | 24.55558 | -81.81462 | 867 ft | 131 kts | 89° |
| 2026-04-30 06:27 | 24.55568 | -81.80464 | 702 ft | 131 kts | 89° |
| 2026-04-30 06:28 | 24.55578 | -81.79469 | 530 ft | 129 kts | 89° |
| 2026-04-30 06:28 | 24.55594 | -81.78484 | 358 ft | 127 kts | 89° |
| 2026-04-30 06:28 | 24.55600 | -81.77547 | 211 ft | 121 kts | 88° |
| 2026-04-30 06:28 | 24.55607 | -81.76632 | 25 ft | 119 kts | 89° |
| 2026-04-30 06:29 | 24.55615 | -81.75822 | 10 ft | 89 kts | 88° |
| 2026-04-30 06:29 | 24.55618 | -81.75473 | 11 ft | 24 kts | 88° |
| 2026-04-30 06:29 | 24.55619 | -81.75330 | 10 ft | 14 kts | 89° |
| 2026-04-30 06:29 | 24.55614 | -81.75256 | 10 ft | 9 kts | 115° |
| 2026-04-30 06:30 | 24.55561 | -81.75239 | 9 ft | 7 kts | 182° |
| 2026-04-30 06:30 | 24.55540 | -81.75248 | 9 ft | 0 kts | 238° |
| 2026-04-30 06:30 | 24.55538 | -81.75252 | 9 ft | 2 kts | 242° |
| 2026-04-30 06:30 | 24.55535 | -81.75283 | 9 ft | 7 kts | 261° |
| 2026-04-30 06:31 | 24.55531 | -81.75374 | 9 ft | 16 kts | 268° |
| 2026-04-30 06:31 | 24.55531 | -81.75489 | 9 ft | 14 kts | 270° |
| 2026-04-30 06:31 | 24.55530 | -81.75586 | 9 ft | 12 kts | 270° |
| 2026-04-30 06:31 | 24.55531 | -81.75676 | 9 ft | 11 kts | 270° |
| 2026-04-30 06:32 | 24.55529 | -81.75750 | 9 ft | 9 kts | 270° |
| 2026-04-30 06:32 | 24.55518 | -81.75782 | 9 ft | 2 kts | 196° |
| 2026-04-30 06:32 | 24.55497 | -81.75782 | 9 ft | 4 kts | 176° |
| 2026-04-30 06:32 | 24.55467 | -81.75778 | 9 ft | 4 kts | 145° |
| 2026-04-30 06:33 | 24.55461 | -81.75746 | 9 ft | 4 kts | 85° |
| 2026-04-30 06:33 | 24.55467 | -81.75734 | 9 ft | 0 kts | 13° |
| 2026-04-30 06:33 | 24.55477 | -81.75735 | 9 ft | 1 kts | 359° |
| 2026-04-30 06:33 | 24.55479 | -81.75735 | 9 ft | 0 kts | 359° |